weather.gov     
National Weather Service

Terminal Aerodrome Forecast
NWS Homepage
This page is being discontinued on March 12, 2014.
The same data is available at this site. Please update your bookmarks.
Thank you, and we apologize for the inconvenience.
Please send an email to SR-SRH.Webmaster@noaa.gov with any concerns.


Current Version
Previous Version:    01  02  03  04  05  06  07  08  09  10  11  12  13  14  15  16  17  18  19  20  21  22  23  24  25  
[Printable]
954
FTUS46 KOTX 221737
TAFCOE
TAF
KCOE 221737Z 2218/2318 11005KT P6SM -SHRA SCT050 BKN080 OVC100
     FM222300 04005KT P6SM VCSH SCT080 BKN120
     FM230300 02005KT P6SM VCTS SCT060 BKN080CB OVC100
     FM230800 05004KT P6SM -SHRA BKN080 OVC100
      AMD LTD TO CLD VIS AND WIND=


954
FTUS46 KOTX 221737
TAFCOE
TAF
KCOE 221737Z 2218/2318 11005KT P6SM -SHRA SCT050 BKN080 OVC100
     FM222300 04005KT P6SM VCSH SCT080 BKN120
     FM230300 02005KT P6SM VCTS SCT060 BKN080CB OVC100
     FM230800 05004KT P6SM -SHRA BKN080 OVC100
      AMD LTD TO CLD VIS AND WIND=




U.S. Dept. of Commerce
NOAA National Weather Service
1325 East West Highway
Silver Spring, MD 20910
E-mail: w-nws.webmaster@noaa.gov
Page last modified: May 16, 2007
NATIONAL WEATHER SERVICE: for Safety, for Work, for Fun - FOR LIFE